Park City, MT (59063)

3:29 PM MST on December 25, 2014 (GMT -0700)
NonFedAWOS LAURELMUNC MT US SUPERAWOS | Change Station
CLOSE
Current Station
Personal Weather Station
Location: Laurel, MT
Elevation: 3517 ft
Nearby Weather Stations

Elev 3517 ft 45.70 °N, 108.76 °W | Updated 34 minutes ago

Overcast
Overcast
25 °F
Feels Like 25 °F
N
0
Wind Variable Wind from North
Gusts 0.0 mph

Today
High -- | Low -- °F
--% Chance of Precip.
Yesterday
High -- | Low -- °F
Precip. -- in
7:54 AM 4:36 PM
Waxing Crescent, 19% visible
Pressure 29.94 in
Visibility 10.0 miles
Clouds Few 900 ft
Scattered Clouds 1300 ft
Overcast 2300 ft
Windchill 25 °F
Dew Point 16 °F
Humidity 68%
Rainfall -999.00 in
Snow Depth Not available.
UV 0 out of 12
Pollen .10 out of 12
Air Quality Not available.
Flu Activity Not available.
SPECI KBIL 252215Z 08005KT 10SM -SN FEW009 SCT013 OVC023 M04/M07 A2994 RMK AO2 SNB15 P0000 T10391067 $

More Conditions Fewer Conditions

Pressure 29.94 in
Visibility 10.0 miles
Clouds Few 900 ft
Scattered Clouds 1300 ft
Overcast 2300 ft
Windchill 25 °F
Dew Point 16 °F
Humidity 68%
Rainfall -999.00 in
Snow Depth Not available.
UV 0 out of 12
Pollen .10 out of 12
Air Quality Not available.
Flu Activity Not available.
SPECI KBIL 252215Z 08005KT 10SM -SN FEW009 SCT013 OVC023 M04/M07 A2994 RMK AO2 SNB15 P0000 T10391067 $

More Conditions Fewer Conditions

10-Day Weather Forecast

Almanac

Astronomy

Dec. 25, 2014 Rise Set
Actual Time
Civil Twilight
Nautical Twilight
Astronomical Twilight
Moon
Length of Visible Light
Length of Day
Tomorrow will be .
, % of the Moon is Illuminated

Today's Extremes

State Highs State Lows

Community

WunderPhotos

Upload Photos

1,780,427 photos uploaded!

WunderBlogs® & News

Nearby

Air Quality

  Air Quality AQ Index Pollutant
Not available.

Snow Depth

Station Depth Elevation

Earthquake Activity

City Distance Mag. Time & Date
Minimum magnitude displayed is 2.5.

Coastal Water Temperatures

Place Temperature

Nearby Weather Stations